createdAt,value
2023-04-27T00:01:58.295Z,5.14
2023-04-27T00:04:25.667Z,5.15
2023-04-27T00:06:52.917Z,5.14
2023-04-27T00:09:19.788Z,5.14
2023-04-27T00:11:46.724Z,5.10
2023-04-27T00:14:13.657Z,5.09
2023-04-27T00:16:40.869Z,5.16
2023-04-27T00:19:09.201Z,5.17
2023-04-27T00:21:36.386Z,5.15
2023-04-27T00:24:03.286Z,5.15
2023-04-27T00:26:30.220Z,5.11
2023-04-27T00:28:58.664Z,5.18
2023-04-27T00:31:25.856Z,5.27
2023-04-27T00:33:53.010Z,5.22
2023-04-27T00:36:19.893Z,5.27
2023-04-27T00:38:49.568Z,5.25
2023-04-27T00:41:16.561Z,5.22
2023-04-27T00:43:45.097Z,5.22
2023-04-27T00:46:15.455Z,5.15
2023-04-27T00:48:43.150Z,5.10
2023-04-27T00:51:10.659Z,5.12
2023-04-27T00:53:38.295Z,5.11
2023-04-27T00:56:05.949Z,5.01
2023-04-27T00:58:33.251Z,5.08
2023-04-27T01:01:00.768Z,5.08
2023-04-27T01:03:28.081Z,5.15
2023-04-27T01:05:56.980Z,5.10
2023-04-27T01:08:23.862Z,5.10
2023-04-27T01:10:51.008Z,5.10
2023-04-27T01:13:17.929Z,5.06
2023-04-27T01:15:44.817Z,5.07
2023-04-27T01:18:11.851Z,5.04
2023-04-27T01:20:39.093Z,5.08
2023-04-27T01:23:06.548Z,5.12
2023-04-27T01:25:33.534Z,5.13
2023-04-27T01:28:02.553Z,5.14
2023-04-27T01:30:30.539Z,5.05
2023-04-27T01:32:59.223Z,5.04
2023-04-27T01:35:28.205Z,4.97
2023-04-27T01:38:00.285Z,5.03
2023-04-27T01:40:27.219Z,5.04
2023-04-27T01:42:54.516Z,5.01
2023-04-27T01:45:21.744Z,4.97
2023-04-27T01:47:51.396Z,5.07
2023-04-27T01:50:20.535Z,5.01
2023-04-27T01:52:47.783Z,5.09
2023-04-27T01:55:14.870Z,5.02
2023-04-27T01:57:42.424Z,5.03
2023-04-27T02:00:09.870Z,5.04
2023-04-27T02:02:51.534Z,5.05
2023-04-27T02:05:18.558Z,5.14
2023-04-27T02:07:46.449Z,5.06
2023-04-27T02:10:13.681Z,5.04
2023-04-27T02:12:40.912Z,5.07
2023-04-27T02:15:09.528Z,5.05
2023-04-27T02:17:36.417Z,5.08
2023-04-27T02:20:03.404Z,5.11
2023-04-27T02:22:30.284Z,5.10
2023-04-27T02:24:57.894Z,5.07
2023-04-27T02:27:25.884Z,5.04
2023-04-27T02:29:53.376Z,4.94
2023-04-27T02:32:20.677Z,4.87
2023-04-27T02:34:47.668Z,4.86
2023-04-27T02:37:14.537Z,4.87
2023-04-27T02:39:41.483Z,4.94
2023-04-27T02:42:08.319Z,4.91
2023-04-27T02:44:35.794Z,4.80
2023-04-27T02:47:02.921Z,4.84
2023-04-27T02:49:29.804Z,4.84
2023-04-27T02:51:57.000Z,4.76
2023-04-27T02:54:23.844Z,4.71
2023-04-27T02:56:50.754Z,4.67
2023-04-27T02:59:17.645Z,4.73
2023-04-27T03:01:44.562Z,4.76
2023-04-27T03:04:14.327Z,4.65
2023-04-27T03:06:41.830Z,4.62
2023-04-27T03:09:10.465Z,4.62
2023-04-27T03:11:37.605Z,4.59
2023-04-27T03:14:05.166Z,4.71
2023-04-27T03:16:35.771Z,4.72
2023-04-27T03:19:02.775Z,4.80
2023-04-27T03:21:32.086Z,4.81
2023-04-27T03:23:58.975Z,4.83
2023-04-27T03:26:26.718Z,4.86
2023-04-27T03:28:53.628Z,4.72
2023-04-27T03:31:20.514Z,4.70
2023-04-27T03:33:47.516Z,4.65
2023-04-27T03:36:15.735Z,4.68
2023-04-27T03:38:42.652Z,4.65
2023-04-27T03:41:09.816Z,4.65
2023-04-27T03:43:37.302Z,4.61
2023-04-27T03:46:04.381Z,4.54
2023-04-27T03:48:32.070Z,4.56
2023-04-27T03:51:01.072Z,4.55
2023-04-27T03:53:28.491Z,4.55
2023-04-27T03:55:57.571Z,4.67
2023-04-27T03:58:25.227Z,4.72
2023-04-27T04:01:10.396Z,4.67
2023-04-27T04:03:38.164Z,4.77
2023-04-27T04:06:08.293Z,4.60
2023-04-27T04:08:35.475Z,4.51
2023-04-27T04:11:03.917Z,4.47
2023-04-27T04:13:30.979Z,4.57
2023-04-27T04:16:08.593Z,4.67
2023-04-27T04:18:39.544Z,4.60
2023-04-27T04:21:06.712Z,4.71
2023-04-27T04:23:33.580Z,4.70
2023-04-27T04:26:03.447Z,4.65
2023-04-27T04:28:34.289Z,4.63
2023-04-27T04:31:01.677Z,4.52
2023-04-27T04:33:28.656Z,4.48
2023-04-27T04:35:56.276Z,4.62
2023-04-27T04:38:24.200Z,4.56
2023-04-27T04:40:53.296Z,4.61
2023-04-27T04:43:20.508Z,4.71
2023-04-27T04:45:48.477Z,4.61
2023-04-27T04:48:16.771Z,4.63
2023-04-27T04:50:45.444Z,4.67
2023-04-27T04:53:13.205Z,4.74
2023-04-27T04:55:40.241Z,4.74
2023-04-27T04:58:08.872Z,4.74
2023-04-27T05:00:36.252Z,4.89
2023-04-27T05:03:03.605Z,4.89
2023-04-27T05:05:30.665Z,4.79
2023-04-27T05:07:57.944Z,4.79
2023-04-27T05:10:25.016Z,4.81
2023-04-27T05:12:55.033Z,4.89
2023-04-27T05:15:22.046Z,4.91
2023-04-27T05:17:48.942Z,4.90
2023-04-27T05:20:16.142Z,4.83
2023-04-27T05:22:43.067Z,4.75
2023-04-27T05:25:10.266Z,4.91
2023-04-27T05:27:37.149Z,4.89
2023-04-27T05:30:04.432Z,4.98
2023-04-27T05:32:31.888Z,4.89
2023-04-27T05:35:01.508Z,4.77
2023-04-27T05:37:28.636Z,4.95
2023-04-27T05:39:55.851Z,5.00
2023-04-27T05:42:22.686Z,5.01
2023-04-27T05:44:49.525Z,4.89
2023-04-27T05:47:16.770Z,4.90
2023-04-27T05:49:46.737Z,4.94
2023-04-27T05:52:19.410Z,4.93
2023-04-27T05:54:50.289Z,4.94
2023-04-27T05:57:17.470Z,4.89
2023-04-27T05:59:47.052Z,5.01
2023-04-27T06:02:16.963Z,5.18
2023-04-27T06:04:44.595Z,5.08
2023-04-27T06:07:12.717Z,5.14
2023-04-27T06:09:43.179Z,5.25
2023-04-27T06:12:10.615Z,5.20
2023-04-27T06:14:38.600Z,5.32
2023-04-27T06:17:06.277Z,5.44
2023-04-27T06:19:33.400Z,5.49
2023-04-27T06:22:00.730Z,5.41
2023-04-27T06:24:28.995Z,5.46
2023-04-27T06:26:55.947Z,5.51
2023-04-27T06:29:22.774Z,5.56
2023-04-27T06:31:49.706Z,5.44
2023-04-27T06:34:16.837Z,5.53
2023-04-27T06:36:43.733Z,5.49
2023-04-27T06:39:10.732Z,5.53
2023-04-27T06:41:37.712Z,5.53
2023-04-27T06:44:04.639Z,5.57
2023-04-27T06:46:31.543Z,5.64
2023-04-27T06:48:58.396Z,5.67
2023-04-27T06:51:25.315Z,5.81
2023-04-27T06:53:53.029Z,5.94
2023-04-27T06:56:19.968Z,5.89
2023-04-27T06:58:46.935Z,5.89
2023-04-27T07:01:13.996Z,5.88
2023-04-27T07:03:41.513Z,5.88
2023-04-27T07:06:09.036Z,5.92
2023-04-27T07:08:37.200Z,5.95
2023-04-27T07:11:08.688Z,5.87
2023-04-27T07:13:35.955Z,5.95
2023-04-27T07:16:04.477Z,5.98
2023-04-27T07:18:31.755Z,5.91
2023-04-27T07:20:59.323Z,5.94
2023-04-27T07:23:26.543Z,5.93
2023-04-27T07:25:54.700Z,5.95
2023-04-27T07:28:21.817Z,6.10
2023-04-27T07:30:49.023Z,6.22
2023-04-27T07:33:16.306Z,6.43
2023-04-27T07:35:43.552Z,6.50
2023-04-27T07:38:10.637Z,6.55
2023-04-27T07:40:37.793Z,6.56
2023-04-27T07:43:05.961Z,6.53
2023-04-27T07:45:33.404Z,6.57
2023-04-27T07:48:01.082Z,6.57
2023-04-27T07:50:30.582Z,6.61
2023-04-27T07:52:58.305Z,6.63
2023-04-27T07:55:26.245Z,6.59
2023-04-27T07:57:54.237Z,6.44
2023-04-27T08:00:22.731Z,6.46
2023-04-27T08:02:51.216Z,6.42
2023-04-27T08:05:19.050Z,6.35
2023-04-27T08:07:49.220Z,6.23
2023-04-27T08:10:16.792Z,6.21
2023-04-27T08:12:43.788Z,6.29
2023-04-27T08:15:11.704Z,6.43
2023-04-27T08:17:41.709Z,6.57
2023-04-27T08:20:13.163Z,6.66
2023-04-27T08:22:41.126Z,6.75
2023-04-27T08:25:09.103Z,6.79
2023-04-27T08:27:40.560Z,6.78
2023-04-27T08:30:08.968Z,6.75
2023-04-27T08:32:38.866Z,6.63
2023-04-27T08:35:06.699Z,6.79
2023-04-27T08:37:33.936Z,6.89
2023-04-27T08:40:01.184Z,7.08
2023-04-27T08:42:31.053Z,7.16
2023-04-27T08:45:02.414Z,7.27
2023-04-27T08:47:42.652Z,6.91
2023-04-27T08:50:12.424Z,6.85
2023-04-27T08:52:39.647Z,6.87
2023-04-27T08:55:08.911Z,6.90
2023-04-27T08:57:36.311Z,7.03
2023-04-27T09:00:18.161Z,7.21
2023-04-27T09:02:49.439Z,7.28
2023-04-27T09:05:21.504Z,7.45
2023-04-27T09:08:05.366Z,7.40
2023-04-27T09:10:47.328Z,7.35
2023-04-27T09:13:14.477Z,7.54
2023-04-27T09:15:49.728Z,7.39
2023-04-27T09:18:19.442Z,7.47
2023-04-27T09:20:47.970Z,7.65
2023-04-27T09:23:33.364Z,7.61
2023-04-27T09:26:03.785Z,7.41
2023-04-27T09:28:32.684Z,7.35
2023-04-27T09:31:00.968Z,7.18
2023-04-27T09:33:33.067Z,7.20
2023-04-27T09:36:01.513Z,7.34
2023-04-27T09:38:30.222Z,7.44
2023-04-27T09:41:00.235Z,7.50
2023-04-27T09:43:29.032Z,7.47
2023-04-27T09:45:59.216Z,7.30
2023-04-27T09:48:27.444Z,7.21
2023-04-27T09:50:55.907Z,7.31
2023-04-27T09:53:31.097Z,7.39
2023-04-27T09:56:07.696Z,7.62
2023-04-27T09:58:46.629Z,7.66
2023-04-27T10:01:33.258Z,7.92
2023-04-27T10:04:40.911Z,7.91
2023-04-27T10:07:13.338Z,7.81
2023-04-27T10:09:43.005Z,7.90
2023-04-27T10:12:20.474Z,7.86
2023-04-27T10:14:54.489Z,7.76
2023-04-27T10:17:32.920Z,7.76
2023-04-27T10:20:02.145Z,7.82
2023-04-27T10:22:46.885Z,7.77
2023-04-27T10:25:16.835Z,7.57
2023-04-27T10:27:46.590Z,7.51
2023-04-27T10:30:14.290Z,7.46
2023-04-27T10:32:51.720Z,7.47
2023-04-27T10:35:20.419Z,7.63
2023-04-27T10:37:48.022Z,7.78
2023-04-27T10:40:17.834Z,7.94
2023-04-27T10:42:49.801Z,8.15
2023-04-27T10:45:31.210Z,8.32
2023-04-27T10:48:00.582Z,8.50
2023-04-27T10:50:28.209Z,8.33
2023-04-27T10:52:55.257Z,8.20
2023-04-27T10:55:23.364Z,8.28
2023-04-27T10:57:52.157Z,8.17
2023-04-27T11:00:27.132Z,8.47
2023-04-27T11:02:55.686Z,8.78
2023-04-27T11:05:26.017Z,8.82
2023-04-27T11:08:04.436Z,8.90
2023-04-27T11:10:31.600Z,8.74
2023-04-27T11:12:59.480Z,8.46
2023-04-27T11:15:26.603Z,8.33
2023-04-27T11:18:05.044Z,8.37
2023-04-27T11:20:34.187Z,8.40
2023-04-27T11:23:01.626Z,8.30
2023-04-27T11:25:30.233Z,8.33
2023-04-27T11:27:59.970Z,8.26
2023-04-27T11:30:29.986Z,8.20
2023-04-27T11:32:58.470Z,8.31
2023-04-27T11:35:34.756Z,8.33
2023-04-27T11:38:01.947Z,8.35
2023-04-27T11:40:29.495Z,8.39
2023-04-27T11:43:00.056Z,8.37
2023-04-27T11:45:30.484Z,8.40
2023-04-27T11:48:01.320Z,8.54
2023-04-27T11:50:28.947Z,8.58
2023-04-27T11:53:01.194Z,8.67
2023-04-27T11:55:28.220Z,8.56
2023-04-27T11:57:59.409Z,8.59
2023-04-27T12:00:26.568Z,8.60
2023-04-27T12:02:53.896Z,8.58
2023-04-27T12:05:22.028Z,8.65
2023-04-27T12:07:51.301Z,8.94
2023-04-27T12:10:20.736Z,9.01
2023-04-27T12:12:47.823Z,8.97
2023-04-27T12:15:14.908Z,8.91
2023-04-27T12:17:46.133Z,8.88
2023-04-27T12:20:16.321Z,8.79
2023-04-27T12:22:44.757Z,8.94
2023-04-27T12:25:33.806Z,8.78
2023-04-27T12:31:33.939Z,8.72
2023-04-27T12:34:04.347Z,8.87
2023-04-27T12:36:32.558Z,9.06
2023-04-27T12:39:17.666Z,9.13
2023-04-27T12:41:52.552Z,8.97
2023-04-27T12:44:57.489Z,9.07
2023-04-27T12:47:58.151Z,8.98
2023-04-27T12:50:33.819Z,8.81
2023-04-27T12:53:02.648Z,8.80
2023-04-27T12:55:49.206Z,8.85
2023-04-27T12:58:40.109Z,8.80
2023-04-27T13:01:57.971Z,8.75
2023-04-27T13:04:34.843Z,8.68
2023-04-27T13:16:41.442Z,10.94
2023-04-27T13:19:25.972Z,10.65
2023-04-27T13:25:01.458Z,10.99
2023-04-27T13:27:38.346Z,11.11
2023-04-27T13:30:32.289Z,10.61
2023-04-27T13:33:22.729Z,10.29
2023-04-27T13:36:09.296Z,10.28
2023-04-27T13:41:39.412Z,9.86
2023-04-27T13:44:14.968Z,9.83
2023-04-27T13:46:44.716Z,10.42
2023-04-27T13:49:16.433Z,10.59
2023-04-27T13:51:43.600Z,10.62
2023-04-27T13:54:10.667Z,10.72
2023-04-27T13:56:38.433Z,10.68
2023-04-27T13:59:05.795Z,11.18
2023-04-27T14:01:34.034Z,11.59
2023-04-27T14:04:02.562Z,11.44
2023-04-27T14:06:35.082Z,11.16
2023-04-27T14:09:04.635Z,11.45
2023-04-27T14:11:42.325Z,11.79
2023-04-27T14:14:27.081Z,11.99
2023-04-27T14:16:54.414Z,11.94
2023-04-27T14:19:22.244Z,11.75
2023-04-27T14:21:58.005Z,12.04
2023-04-27T14:24:29.317Z,12.24
2023-04-27T14:26:57.009Z,12.97
2023-04-27T14:29:26.204Z,13.17
2023-04-27T14:31:59.440Z,13.18
2023-04-27T14:34:27.210Z,13.31
2023-04-27T14:36:56.903Z,13.26
2023-04-27T14:39:23.948Z,13.28
2023-04-27T14:41:54.108Z,12.62
2023-04-27T14:44:21.568Z,12.57
2023-04-27T14:46:56.240Z,12.62
2023-04-27T14:49:23.333Z,12.34
2023-04-27T14:51:53.545Z,12.47
2023-04-27T14:54:21.448Z,12.55
2023-04-27T14:56:48.412Z,12.84
2023-04-27T14:59:15.689Z,12.86
2023-04-27T15:01:45.521Z,12.91
2023-04-27T15:04:12.839Z,12.98
2023-04-27T15:06:40.029Z,13.54
2023-04-27T15:09:48.348Z,13.39
2023-04-27T15:12:15.592Z,12.92
2023-04-27T15:19:01.496Z,13.57
2023-04-27T15:29:18.240Z,11.35
2023-04-27T15:31:47.927Z,10.67
2023-04-27T15:34:16.354Z,10.57
2023-04-27T15:36:44.265Z,10.31
2023-04-27T15:39:16.397Z,11.16
2023-04-27T15:41:45.217Z,11.33
2023-04-27T15:44:14.536Z,11.16
2023-04-27T15:46:42.196Z,11.16
2023-04-27T15:49:09.397Z,11.20
2023-04-27T15:51:36.424Z,11.33
2023-04-27T15:54:03.911Z,11.09
2023-04-27T15:56:31.247Z,11.08
2023-04-27T15:58:58.629Z,11.67
2023-04-27T16:01:26.309Z,12.35
2023-04-27T16:03:53.377Z,12.05
2023-04-27T16:06:20.284Z,11.45
2023-04-27T16:08:47.159Z,11.11
2023-04-27T16:11:14.445Z,10.80
2023-04-27T16:13:41.609Z,10.52
2023-04-27T16:16:08.803Z,10.47
2023-04-27T16:18:36.475Z,10.47
2023-04-27T16:21:04.058Z,10.42
2023-04-27T16:23:31.211Z,10.31
2023-04-27T16:25:58.075Z,10.20
2023-04-27T16:28:25.154Z,10.17
2023-04-27T16:30:53.078Z,10.21
2023-04-27T16:33:21.724Z,10.46
2023-04-27T16:35:49.035Z,11.37
2023-04-27T16:38:16.054Z,11.24
2023-04-27T16:40:43.934Z,11.04
2023-04-27T16:43:10.989Z,10.90
2023-04-27T16:45:39.009Z,10.81
2023-04-27T16:48:06.620Z,10.72
2023-04-27T16:50:33.736Z,10.59
2023-04-27T16:53:06.165Z,10.55
2023-04-27T16:55:34.022Z,10.50
2023-04-27T16:58:01.101Z,10.47
2023-04-27T17:00:28.675Z,10.38
2023-04-27T17:02:55.650Z,10.37
2023-04-27T17:05:22.691Z,10.31
2023-04-27T17:07:49.599Z,10.60
2023-04-27T17:10:17.094Z,11.21
2023-04-27T17:12:43.992Z,11.62
2023-04-27T17:15:12.297Z,11.77
2023-04-27T17:17:39.523Z,11.79
2023-04-27T17:20:07.910Z,12.01
2023-04-27T17:22:35.046Z,12.10
2023-04-27T17:25:02.207Z,12.44
2023-04-27T17:27:29.409Z,12.54
2023-04-27T17:30:08.228Z,12.55
2023-04-27T17:32:35.311Z,12.67
2023-04-27T17:35:02.357Z,12.83
2023-04-27T17:37:29.623Z,12.77
2023-04-27T17:39:57.930Z,12.52
2023-04-27T17:42:24.890Z,12.35
2023-04-27T17:44:51.992Z,12.32
2023-04-27T17:47:20.769Z,12.31
2023-04-27T17:49:47.698Z,12.39
2023-04-27T17:52:14.636Z,12.40
2023-04-27T17:54:41.963Z,12.34
2023-04-27T17:57:09.658Z,12.12
2023-04-27T17:59:37.135Z,11.87
2023-04-27T18:02:04.201Z,11.55
2023-04-27T18:04:32.028Z,11.32
2023-04-27T18:06:58.952Z,11.04
2023-04-27T18:09:27.277Z,10.76
2023-04-27T18:11:54.135Z,10.60
2023-04-27T18:14:21.091Z,10.55
2023-04-27T18:16:48.075Z,10.31
2023-04-27T18:19:15.250Z,10.15
2023-04-27T18:21:42.480Z,10.02
2023-04-27T18:24:09.916Z,9.92
2023-04-27T18:26:37.160Z,9.87
2023-04-27T18:29:04.228Z,9.65
2023-04-27T18:31:31.407Z,9.55
2023-04-27T18:33:59.379Z,9.52
2023-04-27T18:36:27.885Z,9.37
2023-04-27T18:38:55.485Z,9.37
2023-04-27T18:41:23.402Z,9.33
2023-04-27T18:43:50.554Z,9.24
2023-04-27T18:46:17.601Z,9.17
2023-04-27T18:48:44.507Z,9.23
2023-04-27T18:51:11.716Z,9.17
2023-04-27T18:53:38.598Z,9.16
2023-04-27T18:56:07.072Z,9.12
2023-04-27T18:58:35.154Z,9.10
2023-04-27T19:01:02.119Z,9.09
2023-04-27T19:03:29.133Z,9.05
2023-04-27T19:05:56.299Z,8.95
2023-04-27T19:08:23.136Z,8.91
2023-04-27T19:10:51.327Z,8.87
2023-04-27T19:13:18.305Z,8.85
2023-04-27T19:15:45.184Z,8.81
2023-04-27T19:18:12.161Z,8.77
2023-04-27T19:20:40.232Z,8.73
2023-04-27T19:23:09.724Z,8.73
2023-04-27T19:25:36.814Z,8.70
2023-04-27T19:28:04.542Z,8.64
2023-04-27T19:30:31.635Z,8.59
2023-04-27T19:32:58.673Z,8.50
2023-04-27T19:35:26.736Z,8.47
2023-04-27T19:37:53.658Z,8.43
2023-04-27T19:40:20.640Z,8.44
2023-04-27T19:42:48.009Z,8.44
2023-04-27T19:45:16.108Z,8.32
2023-04-27T19:47:43.395Z,8.29
2023-04-27T19:50:11.157Z,8.34
2023-04-27T19:52:38.076Z,8.30
2023-04-27T19:55:05.418Z,8.26
2023-04-27T19:57:32.334Z,8.24
2023-04-27T19:59:59.326Z,8.19
2023-04-27T20:02:26.555Z,8.23
2023-04-27T20:04:53.750Z,8.21
2023-04-27T20:07:21.035Z,8.16
2023-04-27T20:09:47.902Z,8.06
2023-04-27T20:12:34.951Z,8.01
2023-04-27T20:15:01.773Z,7.98
2023-04-27T20:17:29.158Z,7.89
2023-04-27T20:19:56.632Z,7.89
2023-04-27T20:22:24.026Z,7.84
2023-04-27T20:24:51.081Z,7.79
2023-04-27T20:27:18.146Z,7.76
2023-04-27T20:29:46.850Z,7.72
2023-04-27T20:32:13.743Z,7.68
2023-04-27T20:34:40.673Z,7.63
2023-04-27T20:37:07.817Z,7.59
2023-04-27T20:39:35.269Z,7.56
2023-04-27T20:42:02.171Z,7.48
2023-04-27T20:44:29.142Z,7.49
2023-04-27T20:46:56.056Z,7.46
2023-04-27T20:49:31.998Z,7.43
2023-04-27T20:52:02.157Z,7.39
2023-04-27T20:54:32.961Z,7.37
2023-04-27T20:57:03.908Z,7.17
2023-04-27T20:59:30.848Z,7.08
2023-04-27T21:01:57.831Z,7.13
2023-04-27T21:04:26.015Z,7.10
2023-04-27T21:06:56.123Z,7.11
2023-04-27T21:09:23.144Z,7.04
2023-04-27T21:11:50.168Z,7.05
2023-04-27T21:14:17.316Z,7.03
2023-04-27T21:16:44.561Z,7.04
2023-04-27T21:19:14.996Z,7.00
2023-04-27T21:21:42.212Z,7.01
2023-04-27T21:24:09.283Z,7.01
2023-04-27T21:26:36.536Z,7.00
2023-04-27T21:29:06.034Z,6.88
2023-04-27T21:31:33.782Z,6.87
2023-04-27T21:34:01.605Z,6.84
2023-04-27T21:36:28.576Z,6.79
2023-04-27T21:38:55.525Z,6.66
2023-04-27T21:41:22.418Z,6.57
2023-04-27T21:43:49.381Z,6.47
2023-04-27T21:46:16.646Z,6.33
2023-04-27T21:48:43.533Z,6.25
2023-04-27T21:51:10.586Z,6.25
2023-04-27T21:53:37.498Z,6.20
2023-04-27T21:56:04.544Z,6.15
2023-04-27T21:58:31.411Z,6.13
2023-04-27T22:00:58.644Z,6.08
2023-04-27T22:03:25.610Z,6.09
2023-04-27T22:05:52.991Z,6.12
2023-04-27T22:08:20.158Z,6.16
2023-04-27T22:10:47.378Z,6.15
2023-04-27T22:15:44.150Z,6.08
2023-04-27T22:18:11.167Z,6.05
2023-04-27T22:20:38.994Z,6.02
2023-04-27T22:23:06.255Z,6.06
2023-04-27T22:25:33.972Z,6.02
2023-04-27T22:28:01.867Z,5.94
2023-04-27T22:30:29.272Z,5.90
2023-04-27T22:32:56.650Z,5.93
2023-04-27T22:35:27.121Z,5.94
2023-04-27T22:37:56.019Z,5.88
2023-04-27T22:40:23.303Z,5.83
2023-04-27T22:42:50.341Z,5.73
2023-04-27T22:45:17.440Z,5.71
2023-04-27T22:47:44.796Z,5.64
2023-04-27T22:50:12.572Z,5.58
2023-04-27T22:52:42.521Z,5.60
2023-04-27T22:55:10.456Z,5.52
2023-04-27T22:57:38.272Z,5.47
2023-04-27T23:00:06.139Z,5.49
2023-04-27T23:02:33.100Z,5.49
2023-04-27T23:05:00.366Z,5.49
2023-04-27T23:07:27.237Z,5.49
2023-04-27T23:09:55.059Z,5.39
2023-04-27T23:12:22.355Z,5.35
2023-04-27T23:14:49.272Z,5.31
2023-04-27T23:17:16.446Z,5.36
2023-04-27T23:19:43.254Z,5.40
2023-04-27T23:22:10.101Z,5.36
2023-04-27T23:24:37.465Z,5.33
2023-04-27T23:27:04.347Z,5.33
2023-04-27T23:29:31.372Z,5.38
2023-04-27T23:32:04.033Z,5.27
2023-04-27T23:34:33.484Z,5.20
2023-04-27T23:37:00.531Z,5.20
2023-04-27T23:39:28.040Z,5.21
2023-04-27T23:41:55.027Z,5.21
2023-04-27T23:44:22.410Z,5.19
2023-04-27T23:46:49.370Z,5.17
2023-04-27T23:49:16.319Z,5.13
2023-04-27T23:51:43.258Z,5.10
2023-04-27T23:54:10.570Z,5.11
2023-04-27T23:56:37.432Z,5.07
2023-04-27T23:59:04.334Z,4.99
